createdAt,value
2023-03-21T00:03:21.464Z,75.00
2023-03-21T00:08:30.271Z,75.40
2023-03-21T00:13:38.722Z,75.80
2023-03-21T00:18:46.728Z,75.90
2023-03-21T00:23:55.031Z,76.10
2023-03-21T00:29:04.715Z,76.60
2023-03-21T00:39:20.455Z,76.00
2023-03-21T00:44:28.895Z,75.90
2023-03-21T00:49:38.701Z,76.60
2023-03-21T00:54:48.581Z,76.40
2023-03-21T00:59:56.565Z,76.50
2023-03-21T01:05:04.952Z,76.40
2023-03-21T01:10:13.953Z,76.10
2023-03-21T01:15:24.271Z,76.00
2023-03-21T01:20:22.074Z,76.00
2023-03-21T01:25:30.475Z,76.20
2023-03-21T01:30:41.937Z,76.50
2023-03-21T01:35:57.646Z,76.70
2023-03-21T01:40:43.736Z,76.90
2023-03-21T01:45:54.951Z,77.10
2023-03-21T01:50:54.495Z,77.20
2023-03-21T01:56:03.983Z,77.20
2023-03-21T02:01:12.243Z,77.10
2023-03-21T02:06:21.155Z,76.90
2023-03-21T02:11:32.711Z,76.70
2023-03-21T02:16:32.147Z,76.70
2023-03-21T02:21:41.642Z,77.40
2023-03-21T02:27:01.446Z,77.50
2023-03-21T02:32:12.372Z,78.00
2023-03-21T02:37:08.473Z,78.70
2023-03-21T02:42:17.184Z,79.30
2023-03-21T02:47:27.395Z,80.00
2023-03-21T02:52:35.874Z,80.00
2023-03-21T02:57:43.099Z,79.60
2023-03-21T03:02:34.686Z,80.30
2023-03-21T03:07:44.102Z,80.30
2023-03-21T03:12:52.679Z,80.00
2023-03-21T03:18:02.155Z,79.70
2023-03-21T03:23:10.561Z,79.40
2023-03-21T03:28:20.062Z,79.60
2023-03-21T03:33:28.546Z,80.10
2023-03-21T03:38:38.416Z,79.80
2023-03-21T03:43:48.861Z,80.20
2023-03-21T03:48:48.296Z,80.20
2023-03-21T03:53:59.256Z,80.60
2023-03-21T03:58:57.706Z,81.60
2023-03-21T04:04:13.216Z,82.40
2023-03-21T04:09:21.825Z,81.80
2023-03-21T04:14:28.692Z,81.50
2023-03-21T04:19:32.678Z,82.10
2023-03-21T04:24:43.635Z,82.40
2023-03-21T04:29:42.413Z,82.20
2023-03-21T04:34:50.888Z,81.90
2023-03-21T04:39:52.837Z,81.40
2023-03-21T04:45:01.075Z,81.00
2023-03-21T04:50:10.695Z,80.80
2023-03-21T04:55:13.114Z,81.10
2023-03-21T05:00:24.450Z,82.20
2023-03-21T05:05:23.234Z,82.30
2023-03-21T05:10:33.621Z,82.20
2023-03-21T05:15:32.803Z,82.40
2023-03-21T05:20:41.231Z,83.30
2023-03-21T05:25:49.496Z,83.30
2023-03-21T05:30:52.681Z,83.30
2023-03-21T05:36:01.798Z,83.30
2023-03-21T05:41:11.117Z,83.60
2023-03-21T05:46:20.448Z,83.10
2023-03-21T05:51:29.951Z,82.60
2023-03-21T05:56:38.391Z,82.20
2023-03-21T06:01:48.164Z,82.00
2023-03-21T06:07:00.926Z,81.60
2023-03-21T06:11:59.708Z,81.40
2023-03-21T06:17:08.414Z,81.70
2023-03-21T06:22:17.044Z,81.60
2023-03-21T06:27:24.940Z,81.70
2023-03-21T06:32:33.497Z,80.20
2023-03-21T06:37:42.033Z,79.90
2023-03-21T06:42:50.357Z,79.50
2023-03-21T06:47:58.637Z,79.20
2023-03-21T06:53:08.751Z,79.00
2023-03-21T06:58:07.164Z,79.00
2023-03-21T07:03:15.731Z,78.50
2023-03-21T07:08:24.679Z,78.30
2023-03-21T07:13:33.377Z,78.30
2023-03-21T07:18:42.367Z,78.50
2023-03-21T07:23:52.388Z,78.60
2023-03-21T07:28:51.612Z,78.90
2023-03-21T07:34:00.814Z,78.80
2023-03-21T07:39:11.225Z,78.90
2023-03-21T07:44:10.168Z,78.80
2023-03-21T07:49:18.949Z,78.90
2023-03-21T07:54:28.885Z,79.30
2023-03-21T07:59:37.125Z,79.00
2023-03-21T08:04:51.014Z,79.10
2023-03-21T08:09:48.923Z,79.20
2023-03-21T08:14:59.971Z,79.50
2023-03-21T08:20:05.542Z,79.30
2023-03-21T08:25:15.745Z,79.30
2023-03-21T08:30:14.752Z,79.20
2023-03-21T08:35:24.597Z,79.20
2023-03-21T08:40:32.628Z,78.90
2023-03-21T08:45:41.277Z,79.00
2023-03-21T08:50:50.343Z,79.20
2023-03-21T08:56:00.468Z,79.80
2023-03-21T09:00:59.907Z,79.30
2023-03-21T09:06:08.747Z,78.40
2023-03-21T09:11:18.070Z,75.90
2023-03-21T09:16:28.192Z,75.70
2023-03-21T09:21:28.490Z,74.70
2023-03-21T09:26:29.384Z,75.00
2023-03-21T09:31:28.813Z,75.00
2023-03-21T09:36:38.984Z,76.20
2023-03-21T09:41:37.998Z,76.00
2023-03-21T09:46:47.792Z,75.20
2023-03-21T09:51:56.120Z,75.10
2023-03-21T09:57:06.480Z,75.40
2023-03-21T10:02:04.604Z,75.90
2023-03-21T10:07:14.025Z,77.20
2023-03-21T10:12:22.463Z,76.80
2023-03-21T10:17:31.036Z,76.60
2023-03-21T10:22:40.630Z,76.50
2023-03-21T10:27:50.883Z,75.50
2023-03-21T10:32:48.974Z,74.60
2023-03-21T10:37:57.995Z,75.70
2023-03-21T10:43:07.077Z,74.00
2023-03-21T10:48:16.645Z,73.40
2023-03-21T10:53:25.091Z,72.80
2023-03-21T10:58:36.198Z,72.20
2023-03-21T11:03:34.545Z,70.40
2023-03-21T11:08:42.901Z,70.50
2023-03-21T11:13:51.253Z,70.40
2023-03-21T11:19:01.275Z,71.00
2023-03-21T11:23:59.449Z,70.60
2023-03-21T11:29:08.283Z,71.90
2023-03-21T11:34:18.912Z,74.30
2023-03-21T11:39:19.197Z,75.50
2023-03-21T11:44:17.643Z,75.90
2023-03-21T11:49:26.906Z,76.60
2023-03-21T11:54:35.238Z,77.00
2023-03-21T11:59:45.306Z,78.00
2023-03-21T12:04:43.905Z,78.30
2023-03-21T12:09:53.255Z,79.10
2023-03-21T12:15:02.521Z,77.20
2023-03-21T12:20:12.456Z,80.50
2023-03-21T12:25:20.810Z,79.00
2023-03-21T12:30:29.567Z,78.80
2023-03-21T12:35:40.303Z,79.50
2023-03-21T12:40:39.377Z,77.10
2023-03-21T12:45:48.194Z,77.80
2023-03-21T12:50:58.777Z,77.60
2023-03-21T12:55:57.595Z,76.30
2023-03-21T13:01:07.546Z,76.60
2023-03-21T13:06:16.697Z,77.10
2023-03-21T13:11:25.877Z,77.40
2023-03-21T13:16:35.218Z,76.70
2023-03-21T13:21:43.571Z,77.50
2023-03-21T13:26:53.137Z,74.90
2023-03-21T13:32:06.220Z,75.70
2023-03-21T13:37:06.205Z,75.50
2023-03-21T13:42:17.789Z,77.40
2023-03-21T13:47:18.462Z,76.80
2023-03-21T13:52:20.008Z,75.80
2023-03-21T13:57:22.240Z,74.90
2023-03-21T14:02:22.174Z,74.10
2023-03-21T14:07:31.837Z,74.30
2023-03-21T14:12:41.663Z,75.30
2023-03-21T14:17:51.242Z,76.40
2023-03-21T14:23:01.167Z,75.70
2023-03-21T14:28:14.758Z,75.20
2023-03-21T14:33:15.217Z,74.30
2023-03-21T14:38:14.424Z,75.50
2023-03-21T14:43:24.035Z,74.90
2023-03-21T14:48:33.540Z,74.80
2023-03-21T14:53:42.678Z,74.40
2023-03-21T14:58:51.918Z,74.60
2023-03-21T15:04:00.716Z,75.00
2023-03-21T15:09:11.242Z,74.90
2023-03-21T15:14:18.358Z,74.70
2023-03-21T15:19:27.907Z,75.80
2023-03-21T15:24:30.253Z,77.00
2023-03-21T15:29:40.628Z,78.20
2023-03-21T15:34:39.942Z,78.90
2023-03-21T15:39:48.048Z,79.60
2023-03-21T15:44:58.432Z,79.80
2023-03-21T15:49:57.777Z,78.60
2023-03-21T15:55:08.109Z,78.30
2023-03-21T16:00:07.726Z,78.30
2023-03-21T16:05:17.906Z,78.80
2023-03-21T16:10:17.256Z,78.70
2023-03-21T16:15:25.984Z,79.10
2023-03-21T16:20:35.136Z,79.60
2023-03-21T16:25:45.402Z,79.20
2023-03-21T16:30:44.887Z,79.50
2023-03-21T16:35:54.006Z,79.60
2023-03-21T16:41:04.243Z,79.70
2023-03-21T16:46:03.823Z,80.00
2023-03-21T16:51:13.569Z,80.20
2023-03-21T16:56:22.542Z,80.20
2023-03-21T17:01:31.696Z,80.70
2023-03-21T17:06:40.436Z,80.90
2023-03-21T17:11:49.773Z,80.90
2023-03-21T17:16:59.392Z,80.90
2023-03-21T17:22:09.142Z,80.80
2023-03-21T17:27:20.485Z,80.80
2023-03-21T17:32:18.609Z,80.80
2023-03-21T17:37:28.219Z,80.80
2023-03-21T17:42:37.547Z,80.70
2023-03-21T17:47:46.826Z,80.80
2023-03-21T17:52:55.756Z,80.90
2023-03-21T17:58:05.602Z,81.20
2023-03-21T18:03:14.387Z,81.20
2023-03-21T18:08:24.889Z,81.30
2023-03-21T18:13:24.243Z,81.20
2023-03-21T18:18:34.241Z,81.20
2023-03-21T18:23:43.818Z,81.10
2023-03-21T18:29:53.334Z,81.00
2023-03-21T18:33:53.265Z,80.90
2023-03-21T18:39:02.760Z,81.00
2023-03-21T18:44:17.773Z,81.00
2023-03-21T18:50:01.935Z,81.30
2023-03-21T18:54:29.766Z,83.00
2023-03-21T18:59:39.518Z,83.80
2023-03-21T19:04:47.562Z,84.20
2023-03-21T19:10:15.823Z,84.50
2023-03-21T19:15:05.716Z,84.60
2023-03-21T19:20:14.367Z,84.60
2023-03-21T19:25:22.593Z,84.60
2023-03-21T19:30:30.953Z,85.00
2023-03-21T19:35:40.749Z,85.40
2023-03-21T19:40:47.659Z,85.80
2023-03-21T19:45:56.156Z,86.20
2023-03-21T19:51:26.847Z,86.60
2023-03-21T19:56:21.525Z,86.80
2023-03-21T20:01:21.931Z,86.60
2023-03-21T20:06:30.244Z,86.80
2023-03-21T20:11:41.228Z,86.90
2023-03-21T20:16:43.330Z,87.10
2023-03-21T20:21:55.408Z,87.00
2023-03-21T20:26:49.046Z,87.00
2023-03-21T20:31:58.974Z,86.40
2023-03-21T20:37:08.559Z,86.20
2023-03-21T20:42:17.867Z,85.70
2023-03-21T20:47:27.333Z,85.80
2023-03-21T20:53:00.867Z,85.50
2023-03-21T20:57:38.862Z,85.30
2023-03-21T21:02:44.743Z,85.10
2023-03-21T21:07:53.231Z,85.10
2023-03-21T21:13:02.499Z,84.90
2023-03-21T21:18:10.898Z,85.10
2023-03-21T21:23:19.603Z,85.40
2023-03-21T21:28:27.844Z,85.00
2023-03-21T21:33:36.968Z,85.00
2023-03-21T21:38:46.511Z,84.70
2023-03-21T21:43:56.354Z,84.90
2023-03-21T21:49:04.711Z,84.70
2023-03-21T21:54:13.633Z,84.40
2023-03-21T21:59:22.527Z,84.60
2023-03-21T22:04:32.513Z,84.90
2023-03-21T22:09:42.257Z,85.40
2023-03-21T22:14:50.911Z,86.10
2023-03-21T22:20:06.216Z,86.10
2023-03-21T22:25:08.623Z,85.80
2023-03-21T22:30:17.360Z,85.30
2023-03-21T22:35:25.916Z,85.20
2023-03-21T22:40:34.170Z,85.20
2023-03-21T22:45:43.807Z,85.00
2023-03-21T22:50:53.124Z,85.20
2023-03-21T22:56:04.640Z,85.00
2023-03-21T23:00:56.645Z,85.40
2023-03-21T23:06:06.501Z,85.70
2023-03-21T23:11:14.789Z,85.80
2023-03-21T23:16:24.578Z,85.80
2023-03-21T23:21:34.632Z,87.10
2023-03-21T23:26:36.087Z,87.10
2023-03-21T23:31:27.801Z,87.40
2023-03-21T23:36:39.206Z,86.40
2023-03-21T23:41:37.443Z,86.60
2023-03-21T23:46:47.065Z,86.40
2023-03-21T23:51:56.192Z,86.10
2023-03-21T23:57:06.792Z,86.20
